sensor_id;sensor_type;location;lat;lon;timestamp;P1;durP1;ratioP1;P2;durP2;ratioP2
55316;SDS011;41178;48.956;8.130;2023-05-14T00:03:41;4.73;;;4.30;;
55316;SDS011;41178;48.956;8.130;2023-05-14T00:08:43;5.00;;;4.10;;
55316;SDS011;41178;48.956;8.130;2023-05-14T00:13:44;5.10;;;4.60;;
55316;SDS011;41178;48.956;8.130;2023-05-14T00:18:46;7.03;;;5.23;;
55316;SDS011;41178;48.956;8.130;2023-05-14T00:23:48;5.80;;;4.83;;
55316;SDS011;41178;48.956;8.130;2023-05-14T00:28:49;5.43;;;4.83;;
55316;SDS011;41178;48.956;8.130;2023-05-14T00:33:51;5.37;;;4.70;;
55316;SDS011;41178;48.956;8.130;2023-05-14T00:38:53;11.53;;;5.50;;
55316;SDS011;41178;48.956;8.130;2023-05-14T00:43:54;6.10;;;5.53;;
55316;SDS011;41178;48.956;8.130;2023-05-14T00:48:56;6.13;;;5.53;;
55316;SDS011;41178;48.956;8.130;2023-05-14T00:53:59;5.50;;;5.00;;
55316;SDS011;41178;48.956;8.130;2023-05-14T00:59:01;6.00;;;5.50;;
55316;SDS011;41178;48.956;8.130;2023-05-14T01:04:02;6.20;;;5.60;;
55316;SDS011;41178;48.956;8.130;2023-05-14T01:19:56;6.87;;;6.17;;
55316;SDS011;41178;48.956;8.130;2023-05-14T01:24:51;7.27;;;5.73;;
55316;SDS011;41178;48.956;8.130;2023-05-14T01:30:12;7.20;;;6.50;;
55316;SDS011;41178;48.956;8.130;2023-05-14T01:35:15;7.03;;;6.27;;
55316;SDS011;41178;48.956;8.130;2023-05-14T01:40:18;6.30;;;5.67;;
55316;SDS011;41178;48.956;8.130;2023-05-14T01:45:20;6.83;;;6.17;;
55316;SDS011;41178;48.956;8.130;2023-05-14T01:50:22;8.90;;;6.00;;
55316;SDS011;41178;48.956;8.130;2023-05-14T01:55:24;6.80;;;6.10;;
55316;SDS011;41178;48.956;8.130;2023-05-14T02:00:26;6.23;;;5.63;;
55316;SDS011;41178;48.956;8.130;2023-05-14T02:05:27;6.47;;;5.60;;
55316;SDS011;41178;48.956;8.130;2023-05-14T02:10:29;6.97;;;6.10;;
55316;SDS011;41178;48.956;8.130;2023-05-14T02:15:30;5.60;;;4.63;;
55316;SDS011;41178;48.956;8.130;2023-05-14T02:20:32;6.80;;;5.50;;
55316;SDS011;41178;48.956;8.130;2023-05-14T02:25:34;6.17;;;5.57;;
55316;SDS011;41178;48.956;8.130;2023-05-14T02:30:35;6.57;;;5.70;;
55316;SDS011;41178;48.956;8.130;2023-05-14T02:35:37;5.47;;;4.97;;
55316;SDS011;41178;48.956;8.130;2023-05-14T02:40:39;7.90;;;5.03;;
55316;SDS011;41178;48.956;8.130;2023-05-14T02:45:40;5.50;;;5.00;;
55316;SDS011;41178;48.956;8.130;2023-05-14T02:50:42;5.30;;;4.80;;
55316;SDS011;41178;48.956;8.130;2023-05-14T02:55:44;5.47;;;4.97;;
55316;SDS011;41178;48.956;8.130;2023-05-14T03:00:45;5.47;;;4.97;;
55316;SDS011;41178;48.956;8.130;2023-05-14T03:05:47;5.80;;;5.23;;
55316;SDS011;41178;48.956;8.130;2023-05-14T03:10:49;6.00;;;5.23;;
55316;SDS011;41178;48.956;8.130;2023-05-14T03:15:51;6.63;;;5.57;;
55316;SDS011;41178;48.956;8.130;2023-05-14T03:20:55;6.00;;;5.40;;
55316;SDS011;41178;48.956;8.130;2023-05-14T03:25:57;7.10;;;5.27;;
55316;SDS011;41178;48.956;8.130;2023-05-14T03:30:59;5.80;;;5.20;;
55316;SDS011;41178;48.956;8.130;2023-05-14T03:36:01;5.80;;;5.20;;
55316;SDS011;41178;48.956;8.130;2023-05-14T03:41:03;6.37;;;5.60;;
55316;SDS011;41178;48.956;8.130;2023-05-14T03:46:04;7.07;;;5.50;;
55316;SDS011;41178;48.956;8.130;2023-05-14T03:51:06;6.10;;;5.50;;
55316;SDS011;41178;48.956;8.130;2023-05-14T03:56:07;7.00;;;5.30;;
55316;SDS011;41178;48.956;8.130;2023-05-14T04:01:09;6.30;;;5.47;;
55316;SDS011;41178;48.956;8.130;2023-05-14T04:06:11;5.67;;;4.93;;
55316;SDS011;41178;48.956;8.130;2023-05-14T04:11:12;6.33;;;5.30;;
55316;SDS011;41178;48.956;8.130;2023-05-14T04:16:14;5.57;;;5.07;;
55316;SDS011;41178;48.956;8.130;2023-05-14T04:21:16;5.57;;;4.60;;
55316;SDS011;41178;48.956;8.130;2023-05-14T04:26:17;5.70;;;4.80;;
55316;SDS011;41178;48.956;8.130;2023-05-14T04:31:19;5.43;;;4.77;;
55316;SDS011;41178;48.956;8.130;2023-05-14T04:36:21;5.67;;;5.10;;
55316;SDS011;41178;48.956;8.130;2023-05-14T04:41:22;5.87;;;5.13;;
55316;SDS011;41178;48.956;8.130;2023-05-14T04:46:24;5.93;;;5.33;;
55316;SDS011;41178;48.956;8.130;2023-05-14T04:51:26;5.73;;;5.13;;
55316;SDS011;41178;48.956;8.130;2023-05-14T04:56:28;6.10;;;5.50;;
55316;SDS011;41178;48.956;8.130;2023-05-14T05:01:29;6.37;;;5.77;;
55316;SDS011;41178;48.956;8.130;2023-05-14T05:06:31;5.70;;;5.10;;
55316;SDS011;41178;48.956;8.130;2023-05-14T05:11:33;5.60;;;4.87;;
55316;SDS011;41178;48.956;8.130;2023-05-14T05:16:34;5.40;;;4.90;;
55316;SDS011;41178;48.956;8.130;2023-05-14T05:21:36;5.10;;;4.60;;
55316;SDS011;41178;48.956;8.130;2023-05-14T05:26:40;5.20;;;4.33;;
55316;SDS011;41178;48.956;8.130;2023-05-14T05:31:42;5.27;;;4.30;;
55316;SDS011;41178;48.956;8.130;2023-05-14T05:36:44;5.03;;;4.53;;
55316;SDS011;41178;48.956;8.130;2023-05-14T05:41:45;5.90;;;4.50;;
55316;SDS011;41178;48.956;8.130;2023-05-14T05:46:47;5.00;;;4.50;;
55316;SDS011;41178;48.956;8.130;2023-05-14T05:51:49;5.80;;;4.93;;
55316;SDS011;41178;48.956;8.130;2023-05-14T05:56:51;5.17;;;4.67;;
55316;SDS011;41178;48.956;8.130;2023-05-14T06:01:52;7.30;;;5.20;;
55316;SDS011;41178;48.956;8.130;2023-05-14T06:06:54;4.87;;;4.47;;
55316;SDS011;41178;48.956;8.130;2023-05-14T06:11:56;5.37;;;4.70;;
55316;SDS011;41178;48.956;8.130;2023-05-14T06:16:57;4.93;;;4.43;;
55316;SDS011;41178;48.956;8.130;2023-05-14T06:21:59;5.07;;;4.57;;
55316;SDS011;41178;48.956;8.130;2023-05-14T06:27:01;6.80;;;4.90;;
55316;SDS011;41178;48.956;8.130;2023-05-14T06:32:02;5.27;;;4.77;;
55316;SDS011;41178;48.956;8.130;2023-05-14T06:37:05;5.23;;;4.73;;
55316;SDS011;41178;48.956;8.130;2023-05-14T06:42:07;5.83;;;5.13;;
55316;SDS011;41178;48.956;8.130;2023-05-14T06:47:08;5.67;;;4.67;;
55316;SDS011;41178;48.956;8.130;2023-05-14T06:52:10;5.40;;;4.90;;
55316;SDS011;41178;48.956;8.130;2023-05-14T06:57:12;5.03;;;4.40;;
55316;SDS011;41178;48.956;8.130;2023-05-14T07:02:14;5.43;;;4.80;;
55316;SDS011;41178;48.956;8.130;2023-05-14T07:07:15;6.17;;;4.47;;
55316;SDS011;41178;48.956;8.130;2023-05-14T07:12:20;5.43;;;4.83;;
55316;SDS011;41178;48.956;8.130;2023-05-14T07:17:22;6.93;;;5.20;;
55316;SDS011;41178;48.956;8.130;2023-05-14T07:22:24;5.20;;;4.70;;
55316;SDS011;41178;48.956;8.130;2023-05-14T07:27:26;6.50;;;4.83;;
55316;SDS011;41178;48.956;8.130;2023-05-14T07:32:27;5.83;;;4.83;;
55316;SDS011;41178;48.956;8.130;2023-05-14T07:37:29;5.30;;;4.80;;
55316;SDS011;41178;48.956;8.130;2023-05-14T07:42:31;7.60;;;4.87;;
55316;SDS011;41178;48.956;8.130;2023-05-14T07:47:37;5.73;;;4.93;;
55316;SDS011;41178;48.956;8.130;2023-05-14T07:52:39;6.80;;;6.10;;
55316;SDS011;41178;48.956;8.130;2023-05-14T07:57:41;6.47;;;5.53;;
55316;SDS011;41178;48.956;8.130;2023-05-14T08:02:43;6.13;;;5.27;;
55316;SDS011;41178;48.956;8.130;2023-05-14T08:07:45;6.30;;;5.70;;
55316;SDS011;41178;48.956;8.130;2023-05-14T08:12:46;5.93;;;5.13;;
55316;SDS011;41178;48.956;8.130;2023-05-14T08:17:48;5.90;;;5.30;;
55316;SDS011;41178;48.956;8.130;2023-05-14T08:22:50;5.27;;;4.77;;
55316;SDS011;41178;48.956;8.130;2023-05-14T08:27:51;7.40;;;4.93;;
55316;SDS011;41178;48.956;8.130;2023-05-14T08:32:54;6.93;;;6.13;;
55316;SDS011;41178;48.956;8.130;2023-05-14T08:37:56;5.83;;;4.90;;
55316;SDS011;41178;48.956;8.130;2023-05-14T08:42:57;5.27;;;4.77;;
55316;SDS011;41178;48.956;8.130;2023-05-14T08:48:00;6.87;;;5.00;;
55316;SDS011;41178;48.956;8.130;2023-05-14T08:53:09;5.67;;;5.03;;
55316;SDS011;41178;48.956;8.130;2023-05-14T08:58:11;5.23;;;4.17;;
55316;SDS011;41178;48.956;8.130;2023-05-14T09:03:12;4.60;;;4.20;;
55316;SDS011;41178;48.956;8.130;2023-05-14T09:08:15;4.50;;;3.93;;
55316;SDS011;41178;48.956;8.130;2023-05-14T09:13:16;5.83;;;5.10;;
55316;SDS011;41178;48.956;8.130;2023-05-14T09:18:18;5.60;;;5.03;;
55316;SDS011;41178;48.956;8.130;2023-05-14T09:23:20;7.10;;;4.90;;
55316;SDS011;41178;48.956;8.130;2023-05-14T09:28:22;5.00;;;3.93;;
55316;SDS011;41178;48.956;8.130;2023-05-14T09:33:25;4.37;;;3.80;;
55316;SDS011;41178;48.956;8.130;2023-05-14T09:38:31;4.90;;;4.40;;
55316;SDS011;41178;48.956;8.130;2023-05-14T09:43:33;4.80;;;4.30;;
55316;SDS011;41178;48.956;8.130;2023-05-14T09:48:35;4.00;;;3.70;;
55316;SDS011;41178;48.956;8.130;2023-05-14T09:53:37;3.87;;;3.43;;
55316;SDS011;41178;48.956;8.130;2023-05-14T09:58:38;6.63;;;4.20;;
55316;SDS011;41178;48.956;8.130;2023-05-14T10:03:40;8.03;;;5.60;;
55316;SDS011;41178;48.956;8.130;2023-05-14T10:08:46;4.43;;;3.73;;
55316;SDS011;41178;48.956;8.130;2023-05-14T10:19:07;4.50;;;3.53;;
55316;SDS011;41178;48.956;8.130;2023-05-14T10:24:10;4.93;;;3.70;;
55316;SDS011;41178;48.956;8.130;2023-05-14T10:29:13;3.60;;;3.30;;
55316;SDS011;41178;48.956;8.130;2023-05-14T10:39:40;8.67;;;6.60;;
55316;SDS011;41178;48.956;8.130;2023-05-14T10:44:47;5.82;;;3.75;;
55316;SDS011;41178;48.956;8.130;2023-05-14T10:50:01;3.90;;;3.30;;
55316;SDS011;41178;48.956;8.130;2023-05-14T10:55:05;5.17;;;3.70;;
55316;SDS011;41178;48.956;8.130;2023-05-14T11:00:16;3.50;;;3.20;;
55316;SDS011;41178;48.956;8.130;2023-05-14T11:06:26;3.58;;;3.28;;
55316;SDS011;41178;48.956;8.130;2023-05-14T11:11:28;8.23;;;7.07;;
55316;SDS011;41178;48.956;8.130;2023-05-14T11:16:30;3.40;;;3.10;;
55316;SDS011;41178;48.956;8.130;2023-05-14T11:21:31;3.40;;;3.10;;
55316;SDS011;41178;48.956;8.130;2023-05-14T11:26:33;3.30;;;3.00;;
55316;SDS011;41178;48.956;8.130;2023-05-14T11:31:35;4.25;;;2.58;;
55316;SDS011;41178;48.956;8.130;2023-05-14T11:36:38;3.05;;;2.40;;
55316;SDS011;41178;48.956;8.130;2023-05-14T11:41:43;2.60;;;2.40;;
55316;SDS011;41178;48.956;8.130;2023-05-14T11:46:55;2.58;;;2.38;;
55316;SDS011;41178;48.956;8.130;2023-05-14T11:51:58;2.95;;;2.65;;
55316;SDS011;41178;48.956;8.130;2023-05-14T11:57:02;3.45;;;2.75;;
55316;SDS011;41178;48.956;8.130;2023-05-14T12:02:09;3.35;;;3.05;;
55316;SDS011;41178;48.956;8.130;2023-05-14T12:07:13;3.53;;;3.22;;
55316;SDS011;41178;48.956;8.130;2023-05-14T12:12:19;3.55;;;2.97;;
55316;SDS011;41178;48.956;8.130;2023-05-14T12:17:22;3.88;;;3.47;;
55316;SDS011;41178;48.956;8.130;2023-05-14T12:22:24;3.38;;;3.08;;
55316;SDS011;41178;48.956;8.130;2023-05-14T12:27:27;3.50;;;3.20;;
55316;SDS011;41178;48.956;8.130;2023-05-14T12:32:33;3.15;;;2.72;;
55316;SDS011;41178;48.956;8.130;2023-05-14T12:37:35;4.18;;;3.15;;
55316;SDS011;41178;48.956;8.130;2023-05-14T12:42:40;4.22;;;3.35;;
55316;SDS011;41178;48.956;8.130;2023-05-14T12:47:41;3.50;;;3.20;;
55316;SDS011;41178;48.956;8.130;2023-05-14T12:52:43;4.05;;;3.38;;
55316;SDS011;41178;48.956;8.130;2023-05-14T12:57:45;3.75;;;3.28;;
55316;SDS011;41178;48.956;8.130;2023-05-14T13:02:46;3.83;;;3.30;;
55316;SDS011;41178;48.956;8.130;2023-05-14T13:07:48;4.75;;;3.50;;
55316;SDS011;41178;48.956;8.130;2023-05-14T13:12:50;3.47;;;3.17;;
55316;SDS011;41178;48.956;8.130;2023-05-14T13:17:52;3.67;;;3.37;;
55316;SDS011;41178;48.956;8.130;2023-05-14T13:22:54;3.28;;;2.80;;
55316;SDS011;41178;48.956;8.130;2023-05-14T13:27:56;3.00;;;2.80;;
55316;SDS011;41178;48.956;8.130;2023-05-14T13:32:58;3.03;;;2.50;;
55316;SDS011;41178;48.956;8.130;2023-05-14T13:37:59;3.03;;;2.63;;
55316;SDS011;41178;48.956;8.130;2023-05-14T13:43:01;3.43;;;2.53;;
55316;SDS011;41178;48.956;8.130;2023-05-14T13:48:03;2.55;;;2.38;;
55316;SDS011;41178;48.956;8.130;2023-05-14T13:53:05;2.97;;;2.75;;
55316;SDS011;41178;48.956;8.130;2023-05-14T13:58:06;2.50;;;2.28;;
55316;SDS011;41178;48.956;8.130;2023-05-14T14:03:10;2.78;;;2.58;;
55316;SDS011;41178;48.956;8.130;2023-05-14T14:08:11;3.35;;;3.05;;
55316;SDS011;41178;48.956;8.130;2023-05-14T14:13:21;2.83;;;2.63;;
55316;SDS011;41178;48.956;8.130;2023-05-14T14:18:23;3.33;;;3.03;;
55316;SDS011;41178;48.956;8.130;2023-05-14T14:23:25;3.38;;;3.08;;
55316;SDS011;41178;48.956;8.130;2023-05-14T14:28:26;3.22;;;2.92;;
55316;SDS011;41178;48.956;8.130;2023-05-14T14:33:28;2.80;;;2.60;;
55316;SDS011;41178;48.956;8.130;2023-05-14T14:38:30;3.35;;;2.90;;
55316;SDS011;41178;48.956;8.130;2023-05-14T14:43:41;3.10;;;2.90;;
55316;SDS011;41178;48.956;8.130;2023-05-14T14:48:43;4.15;;;2.50;;
55316;SDS011;41178;48.956;8.130;2023-05-14T14:53:45;3.15;;;2.33;;
55316;SDS011;41178;48.956;8.130;2023-05-14T14:58:46;2.70;;;2.30;;
55316;SDS011;41178;48.956;8.130;2023-05-14T15:03:48;2.60;;;2.40;;
55316;SDS011;41178;48.956;8.130;2023-05-14T15:08:50;2.83;;;2.63;;
55316;SDS011;41178;48.956;8.130;2023-05-14T15:13:51;3.28;;;2.97;;
55316;SDS011;41178;48.956;8.130;2023-05-14T15:18:53;3.00;;;2.80;;
55316;SDS011;41178;48.956;8.130;2023-05-14T15:23:55;3.20;;;2.88;;
55316;SDS011;41178;48.956;8.130;2023-05-14T15:28:57;2.87;;;2.60;;
55316;SDS011;41178;48.956;8.130;2023-05-14T15:33:59;2.95;;;2.75;;
55316;SDS011;41178;48.956;8.130;2023-05-14T15:39:01;3.17;;;2.88;;
55316;SDS011;41178;48.956;8.130;2023-05-14T15:44:02;3.88;;;3.47;;
55316;SDS011;41178;48.956;8.130;2023-05-14T15:49:04;2.92;;;2.63;;
55316;SDS011;41178;48.956;8.130;2023-05-14T15:54:06;2.90;;;2.70;;
55316;SDS011;41178;48.956;8.130;2023-05-14T15:59:07;3.00;;;2.80;;
55316;SDS011;41178;48.956;8.130;2023-05-14T16:04:09;3.05;;;2.85;;
55316;SDS011;41178;48.956;8.130;2023-05-14T16:09:11;2.90;;;2.70;;
55316;SDS011;41178;48.956;8.130;2023-05-14T16:14:12;3.35;;;3.05;;
55316;SDS011;41178;48.956;8.130;2023-05-14T16:19:14;3.60;;;3.30;;
55316;SDS011;41178;48.956;8.130;2023-05-14T16:24:16;3.60;;;2.95;;
55316;SDS011;41178;48.956;8.130;2023-05-14T16:29:18;3.40;;;3.10;;
55316;SDS011;41178;48.956;8.130;2023-05-14T16:34:20;3.33;;;3.03;;
55316;SDS011;41178;48.956;8.130;2023-05-14T16:39:21;3.20;;;2.90;;
55316;SDS011;41178;48.956;8.130;2023-05-14T16:44:23;3.65;;;3.25;;
55316;SDS011;41178;48.956;8.130;2023-05-14T16:49:25;4.68;;;3.00;;
55316;SDS011;41178;48.956;8.130;2023-05-14T16:54:26;4.57;;;3.17;;
55316;SDS011;41178;48.956;8.130;2023-05-14T16:59:28;4.32;;;3.22;;
55316;SDS011;41178;48.956;8.130;2023-05-14T17:04:30;2.90;;;2.70;;
55316;SDS011;41178;48.956;8.130;2023-05-14T17:09:33;3.40;;;3.10;;
55316;SDS011;41178;48.956;8.130;2023-05-14T17:14:34;3.22;;;3.03;;
55316;SDS011;41178;48.956;8.130;2023-05-14T17:19:36;3.10;;;2.90;;
55316;SDS011;41178;48.956;8.130;2023-05-14T17:24:37;3.13;;;2.65;;
55316;SDS011;41178;48.956;8.130;2023-05-14T17:29:39;3.33;;;2.97;;
55316;SDS011;41178;48.956;8.130;2023-05-14T17:34:41;3.05;;;2.85;;
55316;SDS011;41178;48.956;8.130;2023-05-14T17:39:42;4.07;;;2.80;;
55316;SDS011;41178;48.956;8.130;2023-05-14T17:44:44;3.40;;;2.80;;
55316;SDS011;41178;48.956;8.130;2023-05-14T17:49:46;2.75;;;2.55;;
55316;SDS011;41178;48.956;8.130;2023-05-14T17:54:48;4.68;;;3.20;;
55316;SDS011;41178;48.956;8.130;2023-05-14T17:59:49;3.00;;;2.72;;
55316;SDS011;41178;48.956;8.130;2023-05-14T18:04:51;2.83;;;2.63;;
55316;SDS011;41178;48.956;8.130;2023-05-14T18:09:52;3.58;;;2.70;;
55316;SDS011;41178;48.956;8.130;2023-05-14T18:14:54;3.38;;;3.08;;
55316;SDS011;41178;48.956;8.130;2023-05-14T18:19:55;3.10;;;2.90;;
55316;SDS011;41178;48.956;8.130;2023-05-14T18:24:57;5.63;;;2.83;;
55316;SDS011;41178;48.956;8.130;2023-05-14T18:29:59;3.15;;;2.75;;
55316;SDS011;41178;48.956;8.130;2023-05-14T18:35:00;3.25;;;2.72;;
55316;SDS011;41178;48.956;8.130;2023-05-14T18:40:02;3.10;;;2.80;;
55316;SDS011;41178;48.956;8.130;2023-05-14T18:45:11;2.92;;;2.65;;
55316;SDS011;41178;48.956;8.130;2023-05-14T18:50:12;3.15;;;2.95;;
55316;SDS011;41178;48.956;8.130;2023-05-14T18:55:14;3.78;;;2.65;;
55316;SDS011;41178;48.956;8.130;2023-05-14T19:00:16;3.30;;;3.00;;
55316;SDS011;41178;48.956;8.130;2023-05-14T19:05:18;2.83;;;2.63;;
55316;SDS011;41178;48.956;8.130;2023-05-14T19:10:19;3.40;;;2.90;;
55316;SDS011;41178;48.956;8.130;2023-05-14T19:15:21;3.53;;;3.23;;
55316;SDS011;41178;48.956;8.130;2023-05-14T19:20:23;3.30;;;3.00;;
55316;SDS011;41178;48.956;8.130;2023-05-14T19:25:25;3.90;;;3.50;;
55316;SDS011;41178;48.956;8.130;2023-05-14T19:30:28;3.50;;;3.20;;
55316;SDS011;41178;48.956;8.130;2023-05-14T19:35:29;3.47;;;3.17;;
55316;SDS011;41178;48.956;8.130;2023-05-14T19:40:31;3.60;;;3.30;;
55316;SDS011;41178;48.956;8.130;2023-05-14T19:45:33;3.67;;;3.33;;
55316;SDS011;41178;48.956;8.130;2023-05-14T19:50:39;4.97;;;4.07;;
55316;SDS011;41178;48.956;8.130;2023-05-14T19:55:41;4.60;;;3.80;;
55316;SDS011;41178;48.956;8.130;2023-05-14T20:00:43;5.17;;;4.33;;
55316;SDS011;41178;48.956;8.130;2023-05-14T20:05:45;4.03;;;3.70;;
55316;SDS011;41178;48.956;8.130;2023-05-14T20:10:47;4.10;;;3.70;;
55316;SDS011;41178;48.956;8.130;2023-05-14T20:15:48;5.57;;;3.90;;
55316;SDS011;41178;48.956;8.130;2023-05-14T20:20:50;4.20;;;3.80;;
55316;SDS011;41178;48.956;8.130;2023-05-14T20:25:52;5.50;;;3.40;;
55316;SDS011;41178;48.956;8.130;2023-05-14T20:30:53;3.33;;;3.00;;
55316;SDS011;41178;48.956;8.130;2023-05-14T20:35:55;3.57;;;3.20;;
55316;SDS011;41178;48.956;8.130;2023-05-14T20:40:57;5.33;;;3.10;;
55316;SDS011;41178;48.956;8.130;2023-05-14T20:45:58;3.80;;;3.50;;
55316;SDS011;41178;48.956;8.130;2023-05-14T20:51:00;4.27;;;3.87;;
55316;SDS011;41178;48.956;8.130;2023-05-14T20:56:05;4.00;;;3.30;;
55316;SDS011;41178;48.956;8.130;2023-05-14T21:01:06;4.90;;;3.63;;
55316;SDS011;41178;48.956;8.130;2023-05-14T21:06:09;4.67;;;4.10;;
55316;SDS011;41178;48.956;8.130;2023-05-14T21:11:11;5.37;;;3.53;;
55316;SDS011;41178;48.956;8.130;2023-05-14T21:16:12;3.60;;;3.30;;
55316;SDS011;41178;48.956;8.130;2023-05-14T21:21:14;3.60;;;2.97;;
55316;SDS011;41178;48.956;8.130;2023-05-14T21:26:16;3.63;;;3.13;;
55316;SDS011;41178;48.956;8.130;2023-05-14T21:31:17;3.77;;;3.37;;
55316;SDS011;41178;48.956;8.130;2023-05-14T21:36:19;3.57;;;3.27;;
55316;SDS011;41178;48.956;8.130;2023-05-14T21:41:21;5.17;;;3.57;;
55316;SDS011;41178;48.956;8.130;2023-05-14T21:46:22;4.30;;;3.30;;
55316;SDS011;41178;48.956;8.130;2023-05-14T21:51:24;3.70;;;3.40;;
55316;SDS011;41178;48.956;8.130;2023-05-14T21:56:26;3.50;;;3.20;;
55316;SDS011;41178;48.956;8.130;2023-05-14T22:01:28;3.73;;;3.43;;
55316;SDS011;41178;48.956;8.130;2023-05-14T22:06:29;3.30;;;3.10;;
55316;SDS011;41178;48.956;8.130;2023-05-14T22:11:32;5.00;;;3.37;;
55316;SDS011;41178;48.956;8.130;2023-05-14T22:16:34;3.43;;;3.03;;
55316;SDS011;41178;48.956;8.130;2023-05-14T22:21:35;3.87;;;3.47;;
55316;SDS011;41178;48.956;8.130;2023-05-14T22:26:37;4.83;;;3.50;;
55316;SDS011;41178;48.956;8.130;2023-05-14T22:31:38;4.30;;;3.37;;
55316;SDS011;41178;48.956;8.130;2023-05-14T22:36:40;3.37;;;3.00;;
55316;SDS011;41178;48.956;8.130;2023-05-14T22:41:42;3.43;;;3.13;;
55316;SDS011;41178;48.956;8.130;2023-05-14T22:46:43;4.07;;;3.20;;
55316;SDS011;41178;48.956;8.130;2023-05-14T22:51:45;3.87;;;3.47;;
55316;SDS011;41178;48.956;8.130;2023-05-14T22:56:47;3.30;;;3.00;;
55316;SDS011;41178;48.956;8.130;2023-05-14T23:01:48;3.60;;;3.30;;
55316;SDS011;41178;48.956;8.130;2023-05-14T23:06:50;4.00;;;3.30;;
55316;SDS011;41178;48.956;8.130;2023-05-14T23:11:52;3.70;;;3.40;;
55316;SDS011;41178;48.956;8.130;2023-05-14T23:16:54;3.50;;;3.20;;
55316;SDS011;41178;48.956;8.130;2023-05-14T23:21:55;3.80;;;3.40;;
55316;SDS011;41178;48.956;8.130;2023-05-14T23:26:58;4.10;;;3.20;;
55316;SDS011;41178;48.956;8.130;2023-05-14T23:32:00;3.87;;;3.37;;
55316;SDS011;41178;48.956;8.130;2023-05-14T23:37:01;3.90;;;3.50;;
55316;SDS011;41178;48.956;8.130;2023-05-14T23:42:03;5.27;;;3.30;;
55316;SDS011;41178;48.956;8.130;2023-05-14T23:47:05;5.50;;;5.00;;
55316;SDS011;41178;48.956;8.130;2023-05-14T23:52:07;4.30;;;3.90;;
55316;SDS011;41178;48.956;8.130;2023-05-14T23:57:09;4.57;;;4.17;;
